Time;durP1;ratioP1;P1;durP2;ratioP2;P2;SDS_P1;SDS_P2;PMS_P1;PMS_P2;Temp;Humidity;BMP_temperature;BMP_pressure;BME280_temperature;BME280_humidity;BME280_pressure;Samples;Min_cycle;Max_cycle;Signal;HPM_P1;HPM_P2
2020/12/26 00:00:04;;;;;;;2.80;1.60;;;;;;;;;;5113849;28;20024;-54
2020/12/26 00:02:31;;;;;;;6.13;2.10;;;;;;;;;;5113850;28;20469;-54
2020/12/26 00:04:58;;;;;;;4.80;2.00;;;;;;;;;;5113529;28;20034;-54
2020/12/26 00:07:25;;;;;;;4.43;2.10;;;;;;;;;;5113812;28;20292;-55
2020/12/26 00:09:51;;;;;;;5.03;1.87;;;;;;;;;;5113665;28;20419;-54
2020/12/26 00:12:18;;;;;;;5.37;1.97;;;;;;;;;;5113480;28;20027;-54
2020/12/26 00:14:45;;;;;;;5.50;2.00;;;;;;;;;;5113543;28;20020;-54
2020/12/26 00:17:11;;;;;;;5.70;1.90;;;;;;;;;;5113554;28;20029;-54
2020/12/26 00:19:38;;;;;;;5.07;2.10;;;;;;;;;;5113347;28;20016;-54
2020/12/26 00:22:05;;;;;;;7.53;2.30;;;;;;;;;;5113572;28;20023;-54
2020/12/26 00:24:31;;;;;;;6.53;2.13;;;;;;;;;;5113311;28;20042;-54
2020/12/26 00:26:58;;;;;;;4.67;2.27;;;;;;;;;;5114066;27;20039;-55
2020/12/26 00:29:25;;;;;;;6.80;1.97;;;;;;;;;;5113496;28;20031;-54
2020/12/26 00:31:52;;;;;;;5.83;2.70;;;;;;;;;;5113243;28;20031;-54
2020/12/26 00:34:19;;;;;;;7.57;2.90;;;;;;;;;;5113282;28;20023;-54
2020/12/26 00:36:45;;;;;;;7.50;2.80;;;;;;;;;;5113260;28;20435;-54
2020/12/26 00:39:12;;;;;;;5.27;2.10;;;;;;;;;;5113334;28;20062;-54
2020/12/26 00:41:45;;;;;;;3.90;2.03;;;;;;;;;;5113175;28;20059;-54
2020/12/26 00:44:12;;;;;;;5.20;2.47;;;;;;;;;;5113445;28;20047;-54
2020/12/26 00:46:39;;;;;;;5.73;2.33;;;;;;;;;;5113370;28;20053;-54
2020/12/26 00:49:05;;;;;;;3.83;1.90;;;;;;;;;;5113149;28;20068;-54
2020/12/26 00:51:32;;;;;;;5.23;2.17;;;;;;;;;;5115247;28;20032;-54
2020/12/26 00:53:59;;;;;;;6.30;2.07;;;;;;;;;;5117301;28;20104;-54
2020/12/26 00:56:25;;;;;;;5.77;2.13;;;;;;;;;;5117390;28;20028;-55
2020/12/26 00:58:52;;;;;;;6.33;2.00;;;;;;;;;;5117378;28;20067;-55
2020/12/26 01:01:19;;;;;;;5.83;3.03;;;;;;;;;;5117222;28;20015;-54
2020/12/26 01:03:45;;;;;;;7.47;2.63;;;;;;;;;;5117068;28;20539;-55
2020/12/26 01:06:13;;;;;;;10.27;2.43;;;;;;;;;;5117202;28;20477;-54
2020/12/26 01:08:40;;;;;;;9.13;3.00;;;;;;;;;;5117387;28;20023;-54
2020/12/26 01:11:07;;;;;;;7.67;2.30;;;;;;;;;;5117056;28;20529;-54
2020/12/26 01:13:34;;;;;;;8.60;2.40;;;;;;;;;;5117005;28;20462;-54
2020/12/26 01:16:00;;;;;;;7.33;2.63;;;;;;;;;;5117126;28;20020;-54
2020/12/26 01:18:30;;;;;;;8.57;2.90;;;;;;;;;;5116962;28;20019;-55
2020/12/26 01:20:57;;;;;;;10.10;2.43;;;;;;;;;;5117053;28;20103;-54
2020/12/26 01:23:24;;;;;;;10.90;2.70;;;;;;;;;;5116921;28;20019;-54
2020/12/26 01:25:51;;;;;;;6.03;2.60;;;;;;;;;;5116914;28;20024;-54
2020/12/26 01:28:18;;;;;;;5.67;2.63;;;;;;;;;;5117467;27;20051;-54
2020/12/26 01:30:45;;;;;;;10.03;2.87;;;;;;;;;;5116604;28;20031;-54
2020/12/26 01:33:12;;;;;;;5.87;2.60;;;;;;;;;;5116688;28;20465;-54
2020/12/26 01:35:38;;;;;;;7.13;2.40;;;;;;;;;;5116697;28;20027;-54
2020/12/26 01:38:05;;;;;;;9.23;3.40;;;;;;;;;;5117026;28;20028;-54
2020/12/26 01:40:32;;;;;;;5.67;2.77;;;;;;;;;;5116715;28;20030;-54
2020/12/26 01:42:58;;;;;;;6.40;3.03;;;;;;;;;;5116510;28;20098;-54
2020/12/26 01:45:25;;;;;;;11.43;3.17;;;;;;;;;;5116462;28;20027;-54
2020/12/26 01:48:05;;;;;;;12.60;3.53;;;;;;;;;;5116460;28;20037;-54
2020/12/26 01:50:32;;;;;;;12.20;3.50;;;;;;;;;;5116372;28;20073;-54
2020/12/26 01:52:58;;;;;;;17.37;4.13;;;;;;;;;;5116256;28;20069;-54
2020/12/26 01:55:25;;;;;;;9.80;3.87;;;;;;;;;;5116360;28;20027;-54
2020/12/26 01:57:53;;;;;;;9.10;3.47;;;;;;;;;;5116288;28;20031;-53
2020/12/26 02:00:21;;;;;;;8.63;3.60;;;;;;;;;;5116107;28;20378;-54
2020/12/26 02:02:49;;;;;;;8.40;3.63;;;;;;;;;;5114838;28;20035;-54
2020/12/26 02:05:16;;;;;;;14.30;4.27;;;;;;;;;;5116199;28;20032;-54
2020/12/26 02:07:47;;;;;;;11.40;3.80;;;;;;;;;;5116030;28;20118;-54
2020/12/26 02:10:17;;;;;;;8.63;3.50;;;;;;;;;;5116037;28;20027;-54
2020/12/26 02:12:43;;;;;;;6.53;3.40;;;;;;;;;;5116387;28;20031;-54
2020/12/26 02:15:13;;;;;;;56.27;6.03;;;;;;;;;;5115859;28;20091;-53
2020/12/26 02:17:40;;;;;;;12.67;3.43;;;;;;;;;;5115788;28;20034;-54
2020/12/26 02:20:07;;;;;;;11.97;3.53;;;;;;;;;;5115758;28;20024;-54
2020/12/26 02:22:33;;;;;;;7.63;3.53;;;;;;;;;;5115588;28;20027;-54
2020/12/26 02:25:00;;;;;;;10.37;3.23;;;;;;;;;;5115723;28;20498;-54
2020/12/26 02:27:27;;;;;;;6.77;2.70;;;;;;;;;;5116273;27;20131;-54
2020/12/26 02:29:53;;;;;;;9.17;3.17;;;;;;;;;;5115700;28;20024;-54
2020/12/26 02:32:20;;;;;;;10.17;2.87;;;;;;;;;;5115627;28;20027;-54
2020/12/26 02:34:47;;;;;;;9.40;3.40;;;;;;;;;;5115525;28;20032;-54
2020/12/26 02:37:13;;;;;;;7.10;3.00;;;;;;;;;;5115573;28;20042;-54
2020/12/26 02:39:40;;;;;;;6.97;3.47;;;;;;;;;;5115547;28;20024;-54
2020/12/26 02:42:07;;;;;;;8.70;3.07;;;;;;;;;;5115415;28;20438;-54
2020/12/26 02:44:34;;;;;;;8.73;3.90;;;;;;;;;;5115110;28;20035;-54
2020/12/26 02:47:00;;;;;;;9.50;3.80;;;;;;;;;;5115077;28;20072;-54
2020/12/26 02:49:27;;;;;;;10.50;3.43;;;;;;;;;;5115229;28;20405;-54
2020/12/26 02:51:54;;;;;;;8.87;3.80;;;;;;;;;;5115214;28;20107;-54
2020/12/26 02:54:20;;;;;;;7.07;2.37;;;;;;;;;;5115107;28;20059;-54
2020/12/26 02:56:47;;;;;;;7.70;3.47;;;;;;;;;;5115250;28;20027;-54
2020/12/26 02:59:14;;;;;;;11.10;3.30;;;;;;;;;;5115005;28;20051;-54
2020/12/26 03:01:41;;;;;;;11.37;3.77;;;;;;;;;;5114929;28;20028;-54
2020/12/26 03:04:07;;;;;;;8.80;2.80;;;;;;;;;;5114721;28;20046;-54
2020/12/26 03:06:34;;;;;;;8.30;3.53;;;;;;;;;;5115234;28;20058;-53
2020/12/26 03:09:01;;;;;;;5.93;3.20;;;;;;;;;;5114844;28;20062;-54
2020/12/26 03:11:28;;;;;;;5.47;2.97;;;;;;;;;;5114749;28;20136;-54
2020/12/26 03:13:54;;;;;;;7.17;3.00;;;;;;;;;;5114475;28;20023;-54
2020/12/26 03:16:21;;;;;;;5.57;2.87;;;;;;;;;;5114700;28;20424;-54
2020/12/26 03:18:48;;;;;;;7.63;3.70;;;;;;;;;;5114788;28;20263;-54
2020/12/26 03:21:15;;;;;;;9.60;3.37;;;;;;;;;;5114770;28;20019;-54
2020/12/26 03:23:42;;;;;;;10.30;3.57;;;;;;;;;;5114404;28;20067;-54
2020/12/26 03:26:08;;;;;;;13.77;3.63;;;;;;;;;;5114502;28;20089;-53
2020/12/26 03:28:35;;;;;;;12.17;4.80;;;;;;;;;;5114859;27;20280;-54
2020/12/26 03:31:03;;;;;;;7.07;3.80;;;;;;;;;;5114372;28;20772;-54
2020/12/26 03:33:30;;;;;;;11.00;3.93;;;;;;;;;;5114338;28;20085;-53
2020/12/26 03:35:57;;;;;;;7.17;3.80;;;;;;;;;;5114377;28;20344;-53
2020/12/26 03:38:23;;;;;;;9.73;3.50;;;;;;;;;;5114781;28;20264;-54
2020/12/26 03:40:50;;;;;;;5.13;2.93;;;;;;;;;;5114308;28;20753;-54
2020/12/26 03:43:17;;;;;;;11.50;3.50;;;;;;;;;;5114141;28;20287;-54
2020/12/26 03:45:44;;;;;;;7.53;3.27;;;;;;;;;;5114100;28;20301;-54
2020/12/26 03:48:10;;;;;;;6.47;3.53;;;;;;;;;;5114028;28;20248;-54
2020/12/26 03:50:37;;;;;;;6.67;3.50;;;;;;;;;;5114023;28;20278;-53
2020/12/26 03:53:04;;;;;;;5.40;3.00;;;;;;;;;;5114044;28;20252;-54
2020/12/26 03:55:30;;;;;;;9.83;3.30;;;;;;;;;;5113853;28;20255;-54
2020/12/26 03:57:57;;;;;;;10.10;3.63;;;;;;;;;;5113883;28;20263;-54
2020/12/26 04:00:24;;;;;;;7.70;4.03;;;;;;;;;;5095687;28;20314;-54
2020/12/26 04:02:51;;;;;;;6.27;3.27;;;;;;;;;;5113733;28;20339;-53
2020/12/26 04:05:18;;;;;;;5.43;3.23;;;;;;;;;;5113651;28;20349;-53
2020/12/26 04:07:45;;;;;;;9.53;3.40;;;;;;;;;;5113723;28;20256;-53
2020/12/26 04:10:11;;;;;;;10.07;3.63;;;;;;;;;;5113581;28;20297;-54
2020/12/26 04:12:38;;;;;;;6.07;3.20;;;;;;;;;;5113728;28;20595;-53
2020/12/26 04:15:05;;;;;;;10.60;3.10;;;;;;;;;;5113581;28;20252;-53
2020/12/26 04:17:34;;;;;;;7.27;3.23;;;;;;;;;;5113546;28;20268;-53
2020/12/26 04:20:01;;;;;;;7.83;3.43;;;;;;;;;;5113752;28;20252;-54
2020/12/26 04:22:28;;;;;;;8.27;3.90;;;;;;;;;;5113535;28;20807;-53
2020/12/26 04:24:54;;;;;;;5.60;3.33;;;;;;;;;;5113235;28;20284;-54
2020/12/26 04:27:21;;;;;;;7.67;3.80;;;;;;;;;;5113534;27;20313;-54
2020/12/26 04:29:48;;;;;;;10.70;4.37;;;;;;;;;;5113375;28;20304;-53
2020/12/26 04:32:15;;;;;;;7.90;4.33;;;;;;;;;;5113272;28;20345;-53
2020/12/26 04:34:42;;;;;;;14.13;4.20;;;;;;;;;;5113230;28;20588;-54
2020/12/26 04:37:09;;;;;;;9.73;4.50;;;;;;;;;;5113248;28;20274;-53
2020/12/26 04:39:35;;;;;;;7.37;3.77;;;;;;;;;;5113409;28;20260;-53
2020/12/26 04:42:02;;;;;;;7.93;4.03;;;;;;;;;;5113285;28;20343;-53
2020/12/26 04:44:29;;;;;;;7.77;3.80;;;;;;;;;;5113129;28;20385;-53
2020/12/26 04:46:56;;;;;;;12.07;3.63;;;;;;;;;;5113029;28;20754;-54
2020/12/26 04:49:23;;;;;;;8.37;3.23;;;;;;;;;;5113248;28;20675;-54
2020/12/26 04:51:51;;;;;;;8.47;3.40;;;;;;;;;;5113595;28;20251;-54
2020/12/26 04:54:24;;;;;;;7.93;3.17;;;;;;;;;;5113055;28;20252;-53
2020/12/26 04:56:53;;;;;;;8.73;2.80;;;;;;;;;;5113231;28;20260;-53
2020/12/26 04:59:21;;;;;;;8.90;3.13;;;;;;;;;;5113386;28;20240;-53
2020/12/26 05:01:48;;;;;;;7.43;3.60;;;;;;;;;;5113256;28;20282;-54
2020/12/26 05:04:15;;;;;;;13.30;4.90;;;;;;;;;;5112937;28;20367;-53
2020/12/26 05:06:48;;;;;;;5.80;3.50;;;;;;;;;;5113077;28;20244;-54
2020/12/26 05:09:16;;;;;;;8.27;4.00;;;;;;;;;;5113028;28;20287;-54
2020/12/26 05:11:52;;;;;;;5.93;3.53;;;;;;;;;;5113104;28;20252;-54
2020/12/26 05:14:22;;;;;;;10.03;3.43;;;;;;;;;;5112812;28;20700;-54
2020/12/26 05:16:49;;;;;;;7.00;3.10;;;;;;;;;;5112990;28;20253;-54
2020/12/26 05:19:15;;;;;;;4.63;2.53;;;;;;;;;;5112916;28;20587;-54
2020/12/26 05:21:45;;;;;;;6.40;2.83;;;;;;;;;;5112768;28;20240;-54
2020/12/26 05:24:12;;;;;;;8.53;3.20;;;;;;;;;;5112856;28;20284;-54
2020/12/26 05:26:46;;;;;;;8.20;3.10;;;;;;;;;;5112926;28;20248;-54
2020/12/26 05:29:13;;;;;;;5.37;3.00;;;;;;;;;;5113323;27;20291;-53
2020/12/26 05:31:43;;;;;;;7.53;2.90;;;;;;;;;;5112650;28;20251;-54
2020/12/26 05:34:09;;;;;;;7.47;3.30;;;;;;;;;;5112718;28;20274;-54
2020/12/26 05:36:36;;;;;;;9.80;3.20;;;;;;;;;;5113026;28;20267;-54
2020/12/26 05:39:03;;;;;;;7.90;3.40;;;;;;;;;;5116730;28;20248;-54
2020/12/26 05:41:30;;;;;;;6.63;3.40;;;;;;;;;;5116575;28;20256;-53
2020/12/26 05:43:58;;;;;;;6.90;3.20;;;;;;;;;;5116306;28;20292;-54
2020/12/26 05:46:25;;;;;;;7.30;3.37;;;;;;;;;;5116575;28;20327;-55
2020/12/26 05:48:52;;;;;;;8.57;3.13;;;;;;;;;;5116487;28;20730;-54
2020/12/26 05:51:25;;;;;;;6.40;3.63;;;;;;;;;;5116325;28;20248;-53
2020/12/26 05:54:03;;;;;;;9.23;3.60;;;;;;;;;;5116223;28;20248;-54
2020/12/26 05:56:33;;;;;;;9.07;3.60;;;;;;;;;;5116138;28;20248;-53
2020/12/26 05:59:00;;;;;;;11.40;3.37;;;;;;;;;;5116189;28;20240;-53
2020/12/26 06:01:27;;;;;;;6.90;3.63;;;;;;;;;;5116603;28;20288;-53
2020/12/26 06:03:53;;;;;;;6.40;3.23;;;;;;;;;;5115962;28;20292;-53
2020/12/26 06:06:24;;;;;;;5.23;2.73;;;;;;;;;;5116150;28;20385;-53
2020/12/26 06:08:51;;;;;;;7.33;2.93;;;;;;;;;;5116036;28;20256;-53
2020/12/26 06:11:18;;;;;;;7.30;3.17;;;;;;;;;;5116140;28;20244;-53
2020/12/26 06:13:45;;;;;;;5.37;3.43;;;;;;;;;;5115966;28;20256;-53
2020/12/26 06:16:12;;;;;;;5.20;3.20;;;;;;;;;;5115870;28;20255;-53
2020/12/26 06:18:40;;;;;;;8.60;3.40;;;;;;;;;;5115867;28;20260;-53
2020/12/26 06:21:08;;;;;;;6.87;3.50;;;;;;;;;;5115825;28;20248;-53
2020/12/26 06:23:40;;;;;;;8.00;2.77;;;;;;;;;;5115683;28;20276;-53
2020/12/26 06:26:07;;;;;;;5.27;3.10;;;;;;;;;;5115643;28;20339;-53
2020/12/26 06:28:35;;;;;;;7.23;3.20;;;;;;;;;;5115970;27;20284;-53
2020/12/26 06:31:05;;;;;;;5.83;3.00;;;;;;;;;;5115448;28;20256;-53
2020/12/26 06:33:39;;;;;;;7.13;2.90;;;;;;;;;;5115634;28;20270;-53
2020/12/26 06:36:06;;;;;;;5.47;2.57;;;;;;;;;;5115536;28;20329;-53
2020/12/26 06:38:34;;;;;;;3.80;1.93;;;;;;;;;;5115790;28;20734;-53
2020/12/26 06:41:04;;;;;;;9.40;2.70;;;;;;;;;;5115361;28;20799;-53
2020/12/26 06:43:40;;;;;;;9.30;2.70;;;;;;;;;;5115376;28;20358;-53
2020/12/26 06:46:30;;;;;;;5.20;2.90;;;;;;;;;;5115307;28;20276;-53
2020/12/26 06:48:58;;;;;;;5.43;3.03;;;;;;;;;;5114431;28;20262;-53
2020/12/26 06:51:24;;;;;;;5.70;2.80;;;;;;;;;;5115320;28;20354;-53
2020/12/26 06:53:52;;;;;;;7.73;2.80;;;;;;;;;;5115227;28;20252;-53
2020/12/26 06:56:34;;;;;;;7.47;2.80;;;;;;;;;;5115412;28;20582;-53
2020/12/26 06:59:01;;;;;;;6.90;3.10;;;;;;;;;;5115339;28;20741;-52
2020/12/26 07:01:28;;;;;;;6.33;2.97;;;;;;;;;;5115064;28;20251;-53
2020/12/26 07:04:13;;;;;;;4.93;2.40;;;;;;;;;;5114813;28;20288;-53
2020/12/26 07:06:46;;;;;;;5.28;3.10;;;;;;;;;;5114958;28;20330;-53
2020/12/26 07:09:33;;;;;;;6.00;3.00;;;;;;;;;;5114871;28;20023;-52
2020/12/26 07:15:03;;;;;;;5.93;2.47;;;;;;;;;;5114873;28;20275;-53
2020/12/26 07:17:30;;;;;;;6.33;3.13;;;;;;;;;;5114935;28;20240;-53
2020/12/26 07:19:59;;;;;;;5.40;2.77;;;;;;;;;;5114625;28;20309;-53
2020/12/26 07:35:28;;;;;;;5.00;2.53;;;;;;;;;;5116697;27;20112;-53
2020/12/26 07:38:11;;;;;;;5.17;2.60;;;;;;;;;;5114277;28;20028;-53
2020/12/26 07:40:39;;;;;;;6.30;2.50;;;;;;;;;;5114236;28;20252;-52
2020/12/26 07:43:10;;;;;;;6.40;2.60;;;;;;;;;;5114008;28;20279;-53
2020/12/26 07:45:37;;;;;;;4.07;2.70;;;;;;;;;;5114249;28;20818;-53
2020/12/26 07:48:05;;;;;;;5.57;2.60;;;;;;;;;;5114125;28;20252;-53
2020/12/26 07:50:32;;;;;;;6.87;3.27;;;;;;;;;;5113977;28;20267;-53
2020/12/26 07:53:00;;;;;;;7.73;4.20;;;;;;;;;;5114016;28;20248;-53
2020/12/26 07:55:29;;;;;;;3.87;2.37;;;;;;;;;;5113928;28;20305;-53
2020/12/26 07:58:06;;;;;;;4.97;3.03;;;;;;;;;;5114212;28;20791;-53
2020/12/26 08:00:34;;;;;;;5.50;2.87;;;;;;;;;;5112890;28;20652;-53
2020/12/26 08:03:01;;;;;;;5.13;2.93;;;;;;;;;;5113754;28;20297;-53
2020/12/26 08:05:38;;;;;;;4.40;2.93;;;;;;;;;;5113660;28;20255;-53
2020/12/26 08:08:21;;;;;;;9.83;3.47;;;;;;;;;;5113910;28;20244;-52
2020/12/26 08:10:48;;;;;;;4.63;2.50;;;;;;;;;;5113695;28;20283;-53
2020/12/26 08:13:15;;;;;;;5.37;2.87;;;;;;;;;;5113709;28;20283;-52
2020/12/26 08:15:42;;;;;;;4.93;3.13;;;;;;;;;;5113724;28;20283;-53
2020/12/26 08:18:09;;;;;;;5.97;2.77;;;;;;;;;;5113608;28;20583;-53
2020/12/26 08:20:36;;;;;;;7.07;3.07;;;;;;;;;;5113483;28;20248;-53
2020/12/26 08:23:03;;;;;;;5.43;3.20;;;;;;;;;;5113475;28;20754;-53
2020/12/26 08:25:31;;;;;;;4.80;2.87;;;;;;;;;;5113385;28;20256;-53
2020/12/26 08:27:58;;;;;;;5.87;3.43;;;;;;;;;;5113392;28;20343;-53
2020/12/26 08:30:29;;;;;;;5.77;2.67;;;;;;;;;;5113419;28;20259;-53
2020/12/26 08:33:21;;;;;;;5.03;2.93;;;;;;;;;;5113382;28;20270;-53
2020/12/26 08:36:02;;;;;;;4.43;2.43;;;;;;;;;;5114035;27;20358;-53
2020/12/26 08:38:35;;;;;;;5.97;2.83;;;;;;;;;;5113381;28;20293;-52
2020/12/26 08:41:03;;;;;;;5.13;2.83;;;;;;;;;;5113270;28;20511;-53
2020/12/26 08:43:30;;;;;;;7.63;3.70;;;;;;;;;;5113129;28;20267;-53
2020/12/26 08:45:56;;;;;;;4.53;2.73;;;;;;;;;;5113238;28;20342;-53
2020/12/26 08:48:24;;;;;;;4.63;2.70;;;;;;;;;;5113306;28;20248;-53
2020/12/26 08:50:54;;;;;;;3.93;2.40;;;;;;;;;;5113179;28;20263;-53
2020/12/26 08:53:23;;;;;;;4.50;2.80;;;;;;;;;;5113442;28;20610;-53
2020/12/26 08:55:52;;;;;;;4.30;2.90;;;;;;;;;;5113165;28;20268;-52
2020/12/26 08:58:32;;;;;;;8.07;3.37;;;;;;;;;;5113124;28;20260;-53
2020/12/26 09:01:00;;;;;;;10.53;4.60;;;;;;;;;;5113201;28;20795;-53
2020/12/26 09:03:27;;;;;;;8.77;3.00;;;;;;;;;;5112884;28;20789;-53
2020/12/26 09:05:55;;;;;;;7.17;3.00;;;;;;;;;;5113129;28;20252;-52
2020/12/26 09:08:28;;;;;;;4.30;2.67;;;;;;;;;;5113068;28;20255;-53
2020/12/26 09:11:03;;;;;;;4.07;2.43;;;;;;;;;;5113164;28;20244;-52
2020/12/26 09:13:36;;;;;;;5.50;3.58;;;;;;;;;;5116508;28;20252;-53
2020/12/26 09:16:06;;;;;;;4.40;2.40;;;;;;;;;;5117108;28;20062;-52
2020/12/26 09:18:37;;;;;;;5.50;2.63;;;;;;;;;;5117130;28;20343;-52
2020/12/26 09:21:05;;;;;;;4.13;2.47;;;;;;;;;;5116930;28;20301;-53
2020/12/26 09:23:35;;;;;;;5.77;2.50;;;;;;;;;;5117086;28;20678;-52
2020/12/26 09:26:14;;;;;;;6.47;2.20;;;;;;;;;;5117013;28;20286;-52
2020/12/26 09:28:45;;;;;;;4.23;2.50;;;;;;;;;;5116805;28;20315;-53
2020/12/26 09:31:12;;;;;;;5.27;2.17;;;;;;;;;;5116718;28;20252;-53
2020/12/26 09:33:39;;;;;;;3.60;1.70;;;;;;;;;;5116656;28;20602;-53
2020/12/26 09:36:07;;;;;;;5.10;2.00;;;;;;;;;;5117290;27;20288;-53
2020/12/26 09:38:33;;;;;;;6.40;2.17;;;;;;;;;;5116720;28;20255;-53
2020/12/26 09:41:09;;;;;;;3.07;1.70;;;;;;;;;;5116605;28;20256;-53
2020/12/26 09:43:36;;;;;;;5.37;2.00;;;;;;;;;;5116535;28;20276;-53
2020/12/26 09:46:02;;;;;;;3.43;1.90;;;;;;;;;;5116546;28;20260;-52
2020/12/26 09:48:29;;;;;;;4.17;2.30;;;;;;;;;;5116547;28;20259;-52
2020/12/26 09:50:56;;;;;;;2.90;1.80;;;;;;;;;;5116323;28;20748;-53
2020/12/26 09:53:22;;;;;;;3.00;1.53;;;;;;;;;;5116321;28;20267;-53
2020/12/26 09:55:49;;;;;;;3.27;1.83;;;;;;;;;;5116295;28;20260;-53
2020/12/26 09:58:16;;;;;;;5.43;1.83;;;;;;;;;;5116481;28;20251;-52
2020/12/26 10:00:42;;;;;;;5.07;2.50;;;;;;;;;;5116182;28;20355;-52
2020/12/26 10:03:09;;;;;;;7.47;2.53;;;;;;;;;;5115973;28;20244;-53
2020/12/26 10:05:36;;;;;;;8.77;2.87;;;;;;;;;;5116228;28;20267;-53
2020/12/26 10:08:03;;;;;;;7.27;2.90;;;;;;;;;;5116220;28;20240;-52
2020/12/26 10:10:29;;;;;;;3.80;2.37;;;;;;;;;;5116037;28;20339;-52
2020/12/26 10:12:56;;;;;;;3.50;1.80;;;;;;;;;;5115777;28;20248;-52
2020/12/26 10:15:23;;;;;;;3.33;1.93;;;;;;;;;;5115953;28;20256;-53
2020/12/26 10:17:51;;;;;;;3.27;1.67;;;;;;;;;;5116010;28;20245;-53
2020/12/26 10:20:17;;;;;;;4.70;2.17;;;;;;;;;;5115854;28;20256;-52
2020/12/26 10:22:44;;;;;;;5.90;1.90;;;;;;;;;;5115681;28;20315;-52
2020/12/26 10:25:11;;;;;;;4.77;2.20;;;;;;;;;;5114810;28;20322;-53
2020/12/26 10:27:37;;;;;;;3.50;2.17;;;;;;;;;;5115725;28;20705;-53
2020/12/26 10:30:04;;;;;;;2.93;1.77;;;;;;;;;;5115579;28;20256;-53
2020/12/26 10:32:31;;;;;;;3.40;1.90;;;;;;;;;;5115735;28;20279;-53
2020/12/26 10:34:58;;;;;;;3.40;2.00;;;;;;;;;;5116089;27;20297;-53
2020/12/26 10:37:25;;;;;;;4.23;2.13;;;;;;;;;;5115554;28;20286;-52
2020/12/26 10:39:52;;;;;;;5.17;2.60;;;;;;;;;;5115426;28;20248;-53
2020/12/26 10:42:19;;;;;;;4.40;2.43;;;;;;;;;;5115421;28;20255;-53
2020/12/26 10:44:45;;;;;;;3.57;2.10;;;;;;;;;;5115323;28;20702;-52
2020/12/26 10:47:12;;;;;;;4.10;2.20;;;;;;;;;;5115411;28;20248;-53
2020/12/26 10:49:39;;;;;;;3.77;2.40;;;;;;;;;;5115271;28;20252;-53
2020/12/26 10:52:05;;;;;;;3.53;2.37;;;;;;;;;;5115259;28;20256;-53
2020/12/26 10:54:32;;;;;;;4.40;2.20;;;;;;;;;;5115160;28;20682;-53
2020/12/26 10:56:59;;;;;;;3.50;2.00;;;;;;;;;;5115220;28;20255;-52
2020/12/26 10:59:25;;;;;;;5.20;3.30;;;;;;;;;;5115215;28;20260;-53
2020/12/26 11:01:52;;;;;;;6.00;3.00;;;;;;;;;;5115225;28;20252;-53
2020/12/26 11:04:19;;;;;;;4.20;2.40;;;;;;;;;;5114909;28;20283;-53
2020/12/26 11:06:49;;;;;;;4.80;2.30;;;;;;;;;;5115037;28;20331;-52
2020/12/26 11:09:19;;;;;;;4.70;3.10;;;;;;;;;;5114848;28;20256;-53
2020/12/26 11:11:46;;;;;;;7.23;3.03;;;;;;;;;;5114688;28;20261;-52
2020/12/26 11:14:13;;;;;;;8.07;3.00;;;;;;;;;;5114778;28;20263;-53
2020/12/26 11:16:39;;;;;;;7.17;2.40;;;;;;;;;;5114897;28;20255;-52
2020/12/26 11:19:06;;;;;;;4.37;2.40;;;;;;;;;;5114672;28;20256;-53
2020/12/26 11:21:33;;;;;;;3.40;1.93;;;;;;;;;;5114703;28;20784;-52
2020/12/26 11:24:00;;;;;;;4.50;2.40;;;;;;;;;;5114604;28;20306;-53
2020/12/26 11:26:27;;;;;;;3.93;2.23;;;;;;;;;;5114598;28;20270;-53
2020/12/26 11:28:54;;;;;;;4.97;2.77;;;;;;;;;;5096647;28;20657;-53
2020/12/26 11:31:22;;;;;;;5.03;2.83;;;;;;;;;;5114499;28;20310;-53
2020/12/26 11:33:48;;;;;;;5.20;2.73;;;;;;;;;;5114281;28;20623;-53
2020/12/26 11:36:20;;;;;;;4.60;2.83;;;;;;;;;;5114784;27;20283;-53
2020/12/26 11:38:47;;;;;;;6.40;3.23;;;;;;;;;;5114395;28;20260;-53
2020/12/26 11:41:16;;;;;;;6.20;3.57;;;;;;;;;;5114386;28;20260;-53
2020/12/26 11:43:43;;;;;;;5.97;4.00;;;;;;;;;;5113974;28;20288;-52
2020/12/26 11:46:10;;;;;;;8.40;3.77;;;;;;;;;;5114178;28;20260;-52
2020/12/26 11:48:37;;;;;;;5.47;3.67;;;;;;;;;;5114143;28;20749;-53
2020/12/26 11:51:04;;;;;;;5.40;3.50;;;;;;;;;;5114028;28;20320;-52
2020/12/26 11:53:31;;;;;;;5.97;3.23;;;;;;;;;;5113803;28;20252;-52
2020/12/26 11:55:58;;;;;;;5.33;3.47;;;;;;;;;;5114044;28;20252;-53
2020/12/26 11:58:25;;;;;;;6.23;3.80;;;;;;;;;;5113937;28;20248;-53
2020/12/26 12:00:55;;;;;;;6.50;3.90;;;;;;;;;;5114012;28;20256;-52
2020/12/26 12:03:22;;;;;;;5.27;3.27;;;;;;;;;;5113726;28;20268;-52
2020/12/26 12:05:49;;;;;;;4.63;3.23;;;;;;;;;;5113966;28;20264;-52
2020/12/26 12:08:15;;;;;;;6.03;3.37;;;;;;;;;;5113766;28;20255;-53
2020/12/26 12:10:42;;;;;;;12.33;3.63;;;;;;;;;;5113863;28;20288;-52
2020/12/26 12:13:09;;;;;;;5.80;3.47;;;;;;;;;;5113715;28;20236;-52
2020/12/26 12:15:36;;;;;;;6.07;3.70;;;;;;;;;;5113448;28;20325;-53
2020/12/26 12:18:02;;;;;;;6.53;3.60;;;;;;;;;;5113661;28;20632;-52
2020/12/26 12:20:32;;;;;;;5.87;3.50;;;;;;;;;;5113562;28;20256;-53
2020/12/26 12:22:59;;;;;;;5.57;3.30;;;;;;;;;;5113597;28;20272;-52
2020/12/26 12:25:26;;;;;;;4.97;3.03;;;;;;;;;;5113549;28;20267;-52
2020/12/26 12:27:53;;;;;;;5.70;3.50;;;;;;;;;;5113432;28;20258;-52
2020/12/26 12:30:33;;;;;;;8.37;4.50;;;;;;;;;;5113302;28;20269;-53
2020/12/26 12:33:00;;;;;;;6.03;3.50;;;;;;;;;;5113441;28;20305;-52
2020/12/26 12:35:26;;;;;;;6.93;4.07;;;;;;;;;;5113966;27;20291;-53
2020/12/26 12:37:53;;;;;;;5.87;3.53;;;;;;;;;;5113384;28;20259;-52
2020/12/26 12:40:20;;;;;;;5.77;3.60;;;;;;;;;;5113392;28;20263;-53
2020/12/26 12:42:47;;;;;;;12.10;4.13;;;;;;;;;;5113212;28;20271;-52
2020/12/26 12:45:14;;;;;;;8.27;4.40;;;;;;;;;;5113342;28;20287;-52
2020/12/26 12:47:41;;;;;;;4.57;3.40;;;;;;;;;;5112718;28;20331;-53
2020/12/26 12:50:08;;;;;;;7.50;4.50;;;;;;;;;;5113162;28;20252;-52
2020/12/26 12:52:35;;;;;;;5.87;3.83;;;;;;;;;;5113143;28;20278;-52
2020/12/26 12:55:02;;;;;;;11.90;4.57;;;;;;;;;;5113279;28;20335;-52
2020/12/26 12:57:28;;;;;;;6.67;4.03;;;;;;;;;;5113299;28;20252;-52
2020/12/26 12:59:56;;;;;;;5.97;3.73;;;;;;;;;;5113204;28;20814;-52
2020/12/26 13:02:23;;;;;;;6.10;4.00;;;;;;;;;;5113076;28;20761;-52
2020/12/26 13:04:49;;;;;;;8.60;4.40;;;;;;;;;;5113097;28;20828;-52
2020/12/26 13:07:16;;;;;;;6.17;4.13;;;;;;;;;;5112997;28;20278;-52
2020/12/26 13:09:43;;;;;;;8.83;3.90;;;;;;;;;;5113091;28;20679;-53
2020/12/26 13:12:10;;;;;;;6.90;3.83;;;;;;;;;;5113111;28;20256;-52
2020/12/26 13:14:37;;;;;;;6.03;3.63;;;;;;;;;;5112969;28;20289;-52
2020/12/26 13:17:04;;;;;;;7.40;4.07;;;;;;;;;;5113094;28;20248;-52
2020/12/26 13:19:31;;;;;;;6.30;3.93;;;;;;;;;;5113235;28;20248;-52
2020/12/26 13:22:00;;;;;;;5.93;3.40;;;;;;;;;;5112963;28;20259;-53
2020/12/26 13:24:27;;;;;;;6.40;3.83;;;;;;;;;;5112739;28;20276;-52
2020/12/26 13:26:54;;;;;;;7.83;4.20;;;;;;;;;;5112890;28;20248;-52
2020/12/26 13:29:20;;;;;;;6.77;3.77;;;;;;;;;;5112929;28;20262;-52
2020/12/26 13:31:47;;;;;;;7.23;4.07;;;;;;;;;;5113170;28;20248;-52
2020/12/26 13:34:14;;;;;;;8.07;4.70;;;;;;;;;;5112758;28;20244;-53
2020/12/26 13:36:40;;;;;;;10.90;3.97;;;;;;;;;;5113284;27;20280;-52
2020/12/26 13:39:08;;;;;;;8.73;3.70;;;;;;;;;;5112737;28;20253;-53
2020/12/26 13:41:35;;;;;;;10.57;4.53;;;;;;;;;;5112776;28;20244;-52
2020/12/26 13:44:02;;;;;;;10.47;5.70;;;;;;;;;;5112707;28;20303;-53
2020/12/26 13:46:29;;;;;;;10.87;5.10;;;;;;;;;;5112835;28;20267;-53
2020/12/26 13:48:56;;;;;;;10.33;5.40;;;;;;;;;;5112689;28;20336;-53
2020/12/26 13:51:25;;;;;;;12.40;5.00;;;;;;;;;;5112778;28;20784;-53
2020/12/26 13:53:51;;;;;;;13.27;5.67;;;;;;;;;;5112610;28;20295;-53
2020/12/26 13:56:24;;;;;;;8.10;4.73;;;;;;;;;;5112708;28;20270;-53
2020/12/26 13:58:51;;;;;;;8.93;5.63;;;;;;;;;;5114920;28;20263;-53
2020/12/26 14:01:18;;;;;;;10.60;5.23;;;;;;;;;;5116308;28;20240;-53
2020/12/26 14:03:45;;;;;;;11.83;4.57;;;;;;;;;;5116048;28;20303;-53
2020/12/26 14:06:14;;;;;;;15.23;5.60;;;;;;;;;;5116244;28;20252;-53
2020/12/26 14:08:41;;;;;;;8.83;5.30;;;;;;;;;;5116250;28;20255;-53
2020/12/26 14:11:08;;;;;;;10.30;5.70;;;;;;;;;;5116009;28;20275;-53
2020/12/26 14:13:36;;;;;;;14.80;7.70;;;;;;;;;;5115760;28;20248;-53
2020/12/26 14:16:04;;;;;;;15.83;7.60;;;;;;;;;;5115951;28;20614;-53
2020/12/26 14:18:30;;;;;;;25.67;7.80;;;;;;;;;;5115949;28;20278;-53
2020/12/26 14:20:57;;;;;;;17.77;8.20;;;;;;;;;;5115770;28;20252;-53
2020/12/26 14:23:24;;;;;;;19.87;9.23;;;;;;;;;;5115953;28;20681;-53
2020/12/26 14:25:54;;;;;;;12.33;6.80;;;;;;;;;;5115772;28;20607;-53
2020/12/26 14:28:21;;;;;;;15.83;6.87;;;;;;;;;;5115807;28;20248;-53
2020/12/26 14:30:48;;;;;;;15.57;6.73;;;;;;;;;;5115523;28;20656;-53
2020/12/26 14:33:15;;;;;;;13.17;5.93;;;;;;;;;;5115525;28;20334;-53
2020/12/26 14:35:42;;;;;;;12.97;5.80;;;;;;;;;;5116066;27;20291;-53
2020/12/26 14:38:09;;;;;;;10.10;5.93;;;;;;;;;;5115544;28;20602;-53
2020/12/26 14:40:37;;;;;;;10.97;5.60;;;;;;;;;;5115600;28;20300;-53
2020/12/26 14:43:04;;;;;;;17.63;8.77;;;;;;;;;;5115340;28;20259;-53
2020/12/26 14:45:31;;;;;;;64.27;26.77;;;;;;;;;;5115388;28;20331;-53
2020/12/26 14:47:59;;;;;;;22.23;10.60;;;;;;;;;;5115283;28;20259;-53
2020/12/26 14:50:26;;;;;;;16.90;7.57;;;;;;;;;;5115282;28;20283;-53
2020/12/26 14:52:53;;;;;;;33.87;14.57;;;;;;;;;;5115312;28;20462;-53
2020/12/26 14:55:19;;;;;;;15.77;7.07;;;;;;;;;;5115086;28;20252;-53
2020/12/26 14:57:46;;;;;;;10.03;4.90;;;;;;;;;;5115288;28;20738;-53
2020/12/26 15:00:12;;;;;;;10.20;5.87;;;;;;;;;;5115472;28;20313;-53